createdAt,value
2019-01-24T00:00:31.014Z,-3.50
2019-01-24T00:03:00.253Z,-3.40
2019-01-24T00:05:29.404Z,-3.40
2019-01-24T00:07:58.521Z,-3.50
2019-01-24T00:10:27.672Z,-3.50
2019-01-24T00:12:56.793Z,-3.50
2019-01-24T00:15:25.931Z,-3.50
2019-01-24T00:17:55.060Z,-3.50
2019-01-24T00:20:24.314Z,-3.60
2019-01-24T00:22:53.458Z,-3.60
2019-01-24T00:25:22.581Z,-3.70
2019-01-24T00:27:51.820Z,-3.60
2019-01-24T00:30:20.960Z,-3.60
2019-01-24T00:32:50.110Z,-3.70
2019-01-24T00:35:19.308Z,-3.70
2019-01-24T00:37:48.498Z,-3.70
2019-01-24T00:40:18.749Z,-3.70
2019-01-24T00:42:47.902Z,-3.70
2019-01-24T00:45:17.140Z,-3.70
2019-01-24T00:47:46.357Z,-3.80
2019-01-24T00:50:15.592Z,-3.70
2019-01-24T00:52:44.737Z,-3.70
2019-01-24T00:55:14.579Z,-3.70
2019-01-24T00:57:43.782Z,-3.80
2019-01-24T01:00:18.634Z,-3.80
2019-01-24T01:02:47.901Z,-3.80
2019-01-24T01:05:17.168Z,-3.70
2019-01-24T01:07:46.310Z,-3.70
2019-01-24T01:10:16.417Z,-3.60
2019-01-24T01:12:45.574Z,-3.70
2019-01-24T01:15:16.656Z,-3.70
2019-01-24T01:17:46.142Z,-3.80
2019-01-24T01:20:17.386Z,-3.90
2019-01-24T01:22:46.559Z,-3.90
2019-01-24T01:25:15.672Z,-3.80
2019-01-24T01:27:45.223Z,-3.80
2019-01-24T01:30:19.315Z,-3.90
2019-01-24T01:32:48.443Z,-3.80
2019-01-24T01:35:17.668Z,-3.80
2019-01-24T01:37:46.848Z,-3.80
2019-01-24T01:40:16.631Z,-3.70
2019-01-24T01:42:45.832Z,-3.80
2019-01-24T01:45:17.168Z,-3.70
2019-01-24T01:47:46.428Z,-3.70
2019-01-24T01:50:17.528Z,-3.60
2019-01-24T01:52:46.723Z,-3.70
2019-01-24T01:55:15.864Z,-3.80
2019-01-24T01:57:44.992Z,-3.70
2019-01-24T02:00:24.985Z,-3.70
2019-01-24T02:02:54.222Z,-3.70
2019-01-24T02:05:23.472Z,-3.70
2019-01-24T02:07:52.632Z,-3.70
2019-01-24T02:10:23.194Z,-3.80
2019-01-24T02:12:52.360Z,-3.80
2019-01-24T02:15:21.535Z,-3.70
2019-01-24T02:17:50.672Z,-3.70
2019-01-24T02:20:21.591Z,-3.80
2019-01-24T02:22:50.752Z,-3.70
2019-01-24T02:25:19.929Z,-3.80
2019-01-24T02:27:49.108Z,-3.60
2019-01-24T02:30:23.834Z,-3.70
2019-01-24T02:32:53.081Z,-3.70
2019-01-24T02:35:22.216Z,-3.70
2019-01-24T02:37:51.422Z,-3.90
2019-01-24T02:40:20.537Z,-3.90
2019-01-24T02:42:49.710Z,-3.80
2019-01-24T02:45:20.104Z,-3.80
2019-01-24T02:47:49.283Z,-3.90
2019-01-24T02:50:19.780Z,-3.80
2019-01-24T02:52:49.013Z,-3.80
2019-01-24T02:55:18.328Z,-3.80
2019-01-24T02:57:47.524Z,-3.70
2019-01-24T03:00:18.814Z,-3.70
2019-01-24T03:02:48.060Z,-3.60
2019-01-24T03:05:18.936Z,-3.60
2019-01-24T03:07:48.318Z,-3.70
2019-01-24T03:10:17.469Z,-3.60
2019-01-24T03:12:46.687Z,-3.50
2019-01-24T03:15:17.472Z,-3.60
2019-01-24T03:17:46.709Z,-3.40
2019-01-24T03:20:17.164Z,-3.40
2019-01-24T03:22:46.308Z,-3.40
2019-01-24T03:25:15.787Z,-3.50
2019-01-24T03:27:45.020Z,-3.40
2019-01-24T03:30:16.230Z,-3.40
2019-01-24T03:32:45.489Z,-3.50
2019-01-24T03:35:16.876Z,-3.50
2019-01-24T03:37:46.047Z,-3.50
2019-01-24T03:40:15.478Z,-3.50
2019-01-24T03:42:44.608Z,-3.40
2019-01-24T03:45:15.031Z,-3.50
2019-01-24T03:47:44.231Z,-3.50
2019-01-24T03:50:17.933Z,-3.50
2019-01-24T03:52:47.573Z,-3.50
2019-01-24T03:55:19.276Z,-3.50
2019-01-24T03:57:48.470Z,-3.60
2019-01-24T04:00:25.049Z,-3.60
2019-01-24T04:02:54.157Z,-3.60
2019-01-24T04:05:23.427Z,-3.60
2019-01-24T04:07:52.543Z,-3.70
2019-01-24T04:10:22.452Z,-3.70
2019-01-24T04:12:51.700Z,-3.70
2019-01-24T04:15:22.764Z,-3.70
2019-01-24T04:17:51.991Z,-3.80
2019-01-24T04:20:21.168Z,-3.70
2019-01-24T04:22:50.360Z,-3.70
2019-01-24T04:25:19.495Z,-3.60
2019-01-24T04:27:48.705Z,-3.70
2019-01-24T04:30:20.015Z,-3.60
2019-01-24T04:32:49.236Z,-3.60
2019-01-24T04:35:19.952Z,-3.50
2019-01-24T04:37:49.344Z,-3.50
2019-01-24T04:40:19.266Z,-3.60
2019-01-24T04:42:48.447Z,-3.60
2019-01-24T04:45:17.656Z,-3.60
2019-01-24T04:47:46.777Z,-3.50
2019-01-24T04:50:16.884Z,-3.50
2019-01-24T04:52:46.039Z,-3.60
2019-01-24T04:55:17.025Z,-3.60
2019-01-24T04:57:46.158Z,-3.60
2019-01-24T05:00:26.596Z,-3.60
2019-01-24T05:02:55.827Z,-3.70
2019-01-24T05:05:28.005Z,-3.70
2019-01-24T05:07:55.827Z,-3.70
2019-01-24T05:10:24.968Z,-3.60
2019-01-24T05:12:54.185Z,-3.60
2019-01-24T05:15:23.340Z,-3.50
2019-01-24T05:17:52.545Z,-3.50
2019-01-24T05:20:21.759Z,-3.60
2019-01-24T05:22:50.875Z,-3.60
2019-01-24T05:25:20.022Z,-3.60
2019-01-24T05:27:49.167Z,-3.60
2019-01-24T05:30:20.947Z,-3.70
2019-01-24T05:32:50.156Z,-3.60
2019-01-24T05:35:19.349Z,-3.60
2019-01-24T05:37:48.548Z,-3.50
2019-01-24T05:40:17.739Z,-3.50
2019-01-24T05:42:46.903Z,-3.40
2019-01-24T05:45:16.113Z,-3.40
2019-01-24T05:47:45.220Z,-3.40
2019-01-24T05:50:14.365Z,-3.50
2019-01-24T05:52:43.585Z,-3.40
2019-01-24T05:55:12.830Z,-3.40
2019-01-24T05:57:41.985Z,-3.30
2019-01-24T06:00:14.868Z,-3.30
2019-01-24T06:02:44.007Z,-3.30
2019-01-24T06:05:13.246Z,-3.30
2019-01-24T06:07:42.383Z,-3.20
2019-01-24T06:10:13.960Z,-3.20
2019-01-24T06:12:43.194Z,-3.20
2019-01-24T06:15:13.863Z,-3.20
2019-01-24T06:17:43.037Z,-3.20
2019-01-24T06:20:12.228Z,-3.20
2019-01-24T06:22:41.316Z,-3.20
2019-01-24T06:25:10.588Z,-3.20
2019-01-24T06:27:39.752Z,-3.20
2019-01-24T06:30:14.842Z,-3.20
2019-01-24T06:32:44.045Z,-3.20
2019-01-24T06:35:13.373Z,-3.20
2019-01-24T06:37:42.894Z,-3.10
2019-01-24T06:40:13.219Z,-3.10
2019-01-24T06:42:42.492Z,-3.20
2019-01-24T06:45:14.842Z,-3.20
2019-01-24T06:47:44.228Z,-3.20
2019-01-24T06:50:14.403Z,-3.10
2019-01-24T06:52:43.675Z,-3.10
2019-01-24T06:55:15.491Z,-3.10
2019-01-24T06:57:44.683Z,-3.10
2019-01-24T07:00:15.812Z,-3.20
2019-01-24T07:02:45.102Z,-3.10
2019-01-24T07:05:14.300Z,-3.20
2019-01-24T07:07:43.631Z,-3.20
2019-01-24T07:10:14.797Z,-3.30
2019-01-24T07:12:43.975Z,-3.20
2019-01-24T07:15:15.630Z,-3.20
2019-01-24T07:17:44.827Z,-3.20
2019-01-24T07:20:14.524Z,-3.10
2019-01-24T07:22:43.694Z,-3.10
2019-01-24T07:25:18.294Z,-3.20
2019-01-24T07:27:47.454Z,-3.20
2019-01-24T07:30:17.224Z,-3.20
2019-01-24T07:32:46.512Z,-3.20
2019-01-24T07:35:16.718Z,-3.20
2019-01-24T07:37:45.954Z,-3.10
2019-01-24T07:40:16.332Z,-3.10
2019-01-24T07:42:45.645Z,-3.10
2019-01-24T07:45:17.563Z,-3.10
2019-01-24T07:47:46.784Z,-3.10
2019-01-24T07:50:16.066Z,-3.10
2019-01-24T07:52:45.539Z,-3.00
2019-01-24T07:55:14.835Z,-3.00
2019-01-24T07:57:44.106Z,-3.00
2019-01-24T08:00:19.767Z,-3.00
2019-01-24T08:02:49.494Z,-2.90
2019-01-24T08:05:19.227Z,-2.90
2019-01-24T08:07:48.631Z,-2.90
2019-01-24T08:10:19.041Z,-2.90
2019-01-24T08:12:48.475Z,-2.80
2019-01-24T08:15:19.128Z,-2.90
2019-01-24T08:17:48.444Z,-2.90
2019-01-24T08:20:22.795Z,-2.80
2019-01-24T08:22:52.073Z,-2.90
2019-01-24T08:25:22.437Z,-2.90
2019-01-24T08:27:52.212Z,-2.80
2019-01-24T08:30:24.127Z,-2.80
2019-01-24T08:32:53.564Z,-2.60
2019-01-24T08:35:22.981Z,-2.60
2019-01-24T08:37:52.738Z,-2.50
2019-01-24T08:40:22.329Z,-2.50
2019-01-24T08:42:51.809Z,-2.40
2019-01-24T08:45:21.441Z,-2.40
2019-01-24T08:47:51.003Z,-2.30
2019-01-24T08:50:21.940Z,-2.20
2019-01-24T08:52:51.516Z,-2.20
2019-01-24T08:55:49.060Z,-2.10
2019-01-24T08:58:18.463Z,-2.10
2019-01-24T09:00:48.010Z,-2.00
2019-01-24T09:03:17.576Z,-2.00
2019-01-24T09:05:47.029Z,-1.90
2019-01-24T09:08:16.551Z,-1.80
2019-01-24T09:10:46.068Z,-1.60
2019-01-24T09:13:15.543Z,-1.30
2019-01-24T09:15:44.817Z,-0.90
2019-01-24T09:18:14.224Z,-0.20
2019-01-24T09:20:43.652Z,0.80
2019-01-24T09:23:12.955Z,1.70
2019-01-24T09:25:42.352Z,2.50
2019-01-24T09:28:14.986Z,2.40
2019-01-24T09:30:42.685Z,2.30
2019-01-24T09:33:12.096Z,2.60
2019-01-24T09:35:41.376Z,1.80
2019-01-24T09:38:10.726Z,2.60
2019-01-24T09:40:40.210Z,2.60
2019-01-24T09:43:09.482Z,2.20
2019-01-24T09:45:38.725Z,2.70
2019-01-24T09:48:08.579Z,2.50
2019-01-24T09:50:37.836Z,2.90
2019-01-24T09:53:07.087Z,2.60
2019-01-24T09:55:36.324Z,2.70
2019-01-24T09:58:05.908Z,3.00
2019-01-24T10:00:36.705Z,4.30
2019-01-24T10:03:06.873Z,5.30
2019-01-24T10:05:36.230Z,5.40
2019-01-24T10:08:06.507Z,5.80
2019-01-24T10:10:35.661Z,5.90
2019-01-24T10:13:05.160Z,6.60
2019-01-24T10:15:34.304Z,6.80
2019-01-24T10:18:03.442Z,6.90
2019-01-24T10:20:32.652Z,7.00
2019-01-24T10:23:01.829Z,7.60
2019-01-24T10:25:39.715Z,8.10
2019-01-24T10:28:09.656Z,8.00
2019-01-24T10:30:42.945Z,8.40
2019-01-24T10:33:09.762Z,8.40
2019-01-24T10:35:38.929Z,8.40
2019-01-24T10:38:08.088Z,8.80
2019-01-24T10:40:37.250Z,8.80
2019-01-24T10:43:06.447Z,9.10
2019-01-24T10:45:35.556Z,9.20
2019-01-24T10:48:05.107Z,9.60
2019-01-24T10:50:35.241Z,9.80
2019-01-24T10:53:04.724Z,10.30
2019-01-24T10:55:34.141Z,10.50
2019-01-24T10:58:03.740Z,9.30
2019-01-24T11:00:42.859Z,10.40
2019-01-24T11:03:14.354Z,10.80
2019-01-24T11:05:43.569Z,11.90
2019-01-24T11:08:12.724Z,9.80
2019-01-24T11:10:41.894Z,7.60
2019-01-24T11:13:11.064Z,9.90
2019-01-24T11:15:40.264Z,9.10
2019-01-24T11:18:09.455Z,10.50
2019-01-24T11:20:38.585Z,10.50
2019-01-24T11:23:07.692Z,9.40
2019-01-24T11:25:36.829Z,10.20
2019-01-24T11:28:05.984Z,10.00
2019-01-24T11:30:35.099Z,8.50
2019-01-24T11:33:04.772Z,9.90
2019-01-24T11:35:35.130Z,10.20
2019-01-24T11:38:04.776Z,10.30
2019-01-24T11:40:38.285Z,10.50
2019-01-24T11:43:07.568Z,10.60
2019-01-24T11:45:41.841Z,11.50
2019-01-24T11:48:11.156Z,11.10
2019-01-24T11:50:41.380Z,11.50
2019-01-24T11:53:10.515Z,12.00
2019-01-24T11:55:39.643Z,11.60
2019-01-24T11:58:08.800Z,10.80
2019-01-24T12:01:04.993Z,10.30
2019-01-24T12:03:35.688Z,10.30
2019-01-24T12:06:05.103Z,11.10
2019-01-24T12:08:34.225Z,10.70
2019-01-24T12:11:03.432Z,10.20
2019-01-24T12:13:32.536Z,10.60
2019-01-24T12:16:01.652Z,11.00
2019-01-24T12:18:30.752Z,10.80
2019-01-24T12:20:59.901Z,10.90
2019-01-24T12:23:30.136Z,11.50
2019-01-24T12:25:59.364Z,11.10
2019-01-24T12:28:28.485Z,11.00
2019-01-24T12:30:57.687Z,10.50
2019-01-24T12:33:26.888Z,9.60
2019-01-24T12:35:56.012Z,9.70
2019-01-24T12:38:25.164Z,8.90
2019-01-24T12:40:54.265Z,8.60
2019-01-24T12:43:23.470Z,8.10
2019-01-24T12:45:52.675Z,7.80
2019-01-24T12:48:21.815Z,8.00
2019-01-24T12:50:55.690Z,7.40
2019-01-24T12:53:24.870Z,7.20
2019-01-24T12:55:53.999Z,5.90
2019-01-24T12:58:23.282Z,5.30
2019-01-24T13:00:52.554Z,5.80
2019-01-24T13:03:21.715Z,6.10
2019-01-24T13:05:50.858Z,5.50
2019-01-24T13:08:20.053Z,5.30
2019-01-24T13:10:49.205Z,5.40
2019-01-24T13:13:22.144Z,4.60
2019-01-24T13:15:51.095Z,4.50
2019-01-24T13:18:20.310Z,4.80
2019-01-24T13:20:49.634Z,4.60
2019-01-24T13:23:18.778Z,4.40
2019-01-24T13:25:47.925Z,4.40
2019-01-24T13:28:18.635Z,4.30
2019-01-24T13:30:47.728Z,4.30
2019-01-24T13:33:16.989Z,4.10
2019-01-24T13:35:46.160Z,3.80
2019-01-24T13:38:15.316Z,3.80
2019-01-24T13:40:44.513Z,4.00
2019-01-24T13:43:13.716Z,3.80
2019-01-24T13:45:42.897Z,3.60
2019-01-24T13:48:12.168Z,3.70
2019-01-24T13:50:41.299Z,3.40
2019-01-24T13:53:10.514Z,3.20
2019-01-24T13:55:39.686Z,3.10
2019-01-24T13:58:09.326Z,3.00
2019-01-24T14:00:40.068Z,2.90
2019-01-24T14:03:42.051Z,2.80
2019-01-24T14:06:08.652Z,2.80
2019-01-24T14:08:37.845Z,2.70
2019-01-24T14:11:07.048Z,2.50
2019-01-24T14:13:36.227Z,2.50
2019-01-24T14:16:05.463Z,2.40
2019-01-24T14:18:34.724Z,2.10
2019-01-24T14:21:04.156Z,2.20
2019-01-24T14:23:33.347Z,2.20
2019-01-24T14:26:02.581Z,2.00
2019-01-24T14:28:31.850Z,2.00
2019-01-24T14:31:01.031Z,2.00
2019-01-24T14:33:30.157Z,2.10
2019-01-24T14:35:59.714Z,1.90
2019-01-24T14:38:29.218Z,2.00
2019-01-24T14:40:58.409Z,2.00
2019-01-24T14:43:27.643Z,2.00
2019-01-24T14:45:57.116Z,2.00
2019-01-24T14:48:26.300Z,1.90
2019-01-24T14:50:55.533Z,1.90
2019-01-24T14:53:24.759Z,1.80
2019-01-24T14:55:57.439Z,1.90
2019-01-24T14:58:26.967Z,1.80
2019-01-24T15:01:01.025Z,1.80
2019-01-24T15:03:30.326Z,1.70
2019-01-24T15:05:59.611Z,1.70
2019-01-24T15:08:28.788Z,1.50
2019-01-24T15:10:57.924Z,1.10
2019-01-24T15:13:27.062Z,1.30
2019-01-24T15:15:56.199Z,1.30
2019-01-24T15:18:25.359Z,1.30
2019-01-24T15:20:54.591Z,1.30
2019-01-24T15:23:23.727Z,1.30
2019-01-24T15:25:52.845Z,1.20
2019-01-24T15:28:22.028Z,1.20
2019-01-24T15:30:51.212Z,1.10
2019-01-24T15:33:20.408Z,0.90
2019-01-24T15:35:49.596Z,0.90
2019-01-24T15:38:18.875Z,0.90
2019-01-24T15:40:48.175Z,0.90
2019-01-24T15:43:20.488Z,0.90
2019-01-24T15:45:49.707Z,0.70
2019-01-24T15:48:18.850Z,0.70
2019-01-24T15:50:48.029Z,0.70
2019-01-24T15:53:17.251Z,0.70
2019-01-24T15:55:46.393Z,0.70
2019-01-24T15:58:15.654Z,0.60
2019-01-24T16:00:44.996Z,0.60
2019-01-24T16:03:14.267Z,0.40
2019-01-24T16:05:43.447Z,0.50
2019-01-24T16:08:12.665Z,0.40
2019-01-24T16:10:41.877Z,0.40
2019-01-24T16:13:11.059Z,0.30
2019-01-24T16:15:40.193Z,0.30
2019-01-24T16:18:10.945Z,0.30
2019-01-24T16:20:40.084Z,0.30
2019-01-24T16:23:09.297Z,0.20
2019-01-24T16:25:39.037Z,0.20
2019-01-24T16:28:08.299Z,0.20
2019-01-24T16:30:37.880Z,0.20
2019-01-24T16:33:08.390Z,0.10
2019-01-24T16:35:38.405Z,0.00
2019-01-24T16:38:09.493Z,0.00
2019-01-24T16:40:38.387Z,0.00
2019-01-24T16:43:07.514Z,-0.10
2019-01-24T16:45:36.735Z,-0.10
2019-01-24T16:48:06.185Z,-0.20
2019-01-24T16:50:35.435Z,-0.30
2019-01-24T16:53:04.716Z,-0.20
2019-01-24T16:55:35.139Z,-0.20
2019-01-24T16:58:04.414Z,-0.30
2019-01-24T17:00:45.660Z,-0.30
2019-01-24T17:03:14.885Z,-0.30
2019-01-24T17:05:44.136Z,-0.40
2019-01-24T17:08:16.603Z,-0.50
2019-01-24T17:10:44.273Z,-0.60
2019-01-24T17:13:13.457Z,-0.50
2019-01-24T17:15:42.715Z,-0.50
2019-01-24T17:18:11.979Z,-0.60
2019-01-24T17:20:41.137Z,-0.70
2019-01-24T17:23:10.264Z,-0.80
2019-01-24T17:25:39.407Z,-0.80
2019-01-24T17:28:08.524Z,-0.70
2019-01-24T17:30:37.693Z,-0.70
2019-01-24T17:33:07.878Z,-0.70
2019-01-24T17:35:37.169Z,-0.80
2019-01-24T17:38:06.276Z,-0.80
2019-01-24T17:40:35.530Z,-0.90
2019-01-24T17:43:05.180Z,-0.90
2019-01-24T17:45:34.367Z,-0.80
2019-01-24T17:48:03.534Z,-0.80
2019-01-24T17:50:32.750Z,-0.90
2019-01-24T17:53:01.949Z,-1.00
2019-01-24T17:55:36.468Z,-0.90
2019-01-24T17:58:07.752Z,-0.90
2019-01-24T18:00:38.855Z,-0.90
2019-01-24T18:03:08.020Z,-0.90
2019-01-24T18:05:37.183Z,-0.90
2019-01-24T18:08:06.399Z,-1.00
2019-01-24T18:10:35.684Z,-1.00
2019-01-24T18:13:04.838Z,-1.10
2019-01-24T18:15:34.060Z,-1.10
2019-01-24T18:18:04.525Z,-1.20
2019-01-24T18:20:34.056Z,-1.10
2019-01-24T18:23:03.241Z,-1.10
2019-01-24T18:25:32.458Z,-1.10
2019-01-24T18:28:01.650Z,-1.00
2019-01-24T18:30:30.832Z,-0.90
2019-01-24T18:32:59.963Z,-1.00
2019-01-24T18:35:29.201Z,-1.10
2019-01-24T18:37:58.581Z,-1.20
2019-01-24T18:40:28.505Z,-1.30
2019-01-24T18:42:58.252Z,-1.20
2019-01-24T18:45:39.784Z,-1.40
2019-01-24T18:48:09.161Z,-1.40
2019-01-24T18:50:38.425Z,-1.40
2019-01-24T18:53:07.766Z,-1.40
2019-01-24T18:55:37.140Z,-1.40
2019-01-24T18:58:07.037Z,-1.40
2019-01-24T19:00:38.940Z,-1.50
2019-01-24T19:03:09.391Z,-1.40
2019-01-24T19:05:39.245Z,-1.30
2019-01-24T19:08:10.664Z,-1.40
2019-01-24T19:10:40.001Z,-1.50
2019-01-24T19:13:15.902Z,-1.50
2019-01-24T19:15:47.236Z,-1.60
2019-01-24T19:18:16.532Z,-1.60
2019-01-24T19:20:45.757Z,-1.70
2019-01-24T19:23:15.033Z,-1.70
2019-01-24T19:25:44.348Z,-1.70
2019-01-24T19:28:16.004Z,-1.70
2019-01-24T19:30:46.666Z,-1.70
2019-01-24T19:33:16.039Z,-1.70
2019-01-24T19:35:45.450Z,-1.80
2019-01-24T19:38:14.765Z,-1.80
2019-01-24T19:40:44.093Z,-1.80
2019-01-24T19:43:13.417Z,-1.80
2019-01-24T19:45:44.094Z,-1.90
2019-01-24T19:48:13.405Z,-1.90
2019-01-24T19:50:42.616Z,-1.90
2019-01-24T19:53:11.820Z,-1.90
2019-01-24T19:55:41.094Z,-1.90
2019-01-24T19:58:10.409Z,-2.00
2019-01-24T20:00:39.642Z,-2.00
2019-01-24T20:03:09.077Z,-2.00
2019-01-24T20:05:38.305Z,-2.10
2019-01-24T20:08:07.584Z,-2.00
2019-01-24T20:10:36.871Z,-2.10
2019-01-24T20:13:06.317Z,-2.10
2019-01-24T20:15:35.708Z,-2.10
2019-01-24T20:18:05.560Z,-2.00
2019-01-24T20:20:34.914Z,-2.10
2019-01-24T20:23:04.203Z,-2.10
2019-01-24T20:25:33.663Z,-2.10
2019-01-24T20:28:02.899Z,-2.10
2019-01-24T20:30:32.760Z,-2.10
2019-01-24T20:33:02.571Z,-2.10
2019-01-24T20:35:46.722Z,-2.10
2019-01-24T20:38:16.069Z,-2.10
2019-01-24T20:40:45.318Z,-2.10
2019-01-24T20:43:14.756Z,-2.10
2019-01-24T20:45:43.979Z,-2.10
2019-01-24T20:48:13.415Z,-2.10
2019-01-24T20:50:42.756Z,-2.20
2019-01-24T20:53:12.029Z,-2.10
2019-01-24T20:55:41.334Z,-2.30
2019-01-24T20:58:10.551Z,-2.40
2019-01-24T21:00:39.789Z,-2.30
2019-01-24T21:05:51.602Z,-2.20
2019-01-24T21:08:20.966Z,-2.20
2019-01-24T21:10:52.564Z,-2.20
2019-01-24T21:13:21.901Z,-2.20
2019-01-24T21:15:54.945Z,-2.20
2019-01-24T21:18:24.373Z,-2.20
2019-01-24T21:20:53.676Z,-2.20
2019-01-24T21:23:22.914Z,-2.20
2019-01-24T21:25:52.127Z,-2.20
2019-01-24T21:28:21.392Z,-2.30
2019-01-24T21:30:50.631Z,-2.20
2019-01-24T21:33:19.946Z,-2.30
2019-01-24T21:35:49.538Z,-2.30
2019-01-24T21:38:18.866Z,-2.20
2019-01-24T21:40:48.170Z,-2.20
2019-01-24T21:43:17.402Z,-2.20
2019-01-24T21:45:46.652Z,-2.30
2019-01-24T21:48:15.906Z,-2.20
2019-01-24T21:50:45.204Z,-2.50
2019-01-24T21:53:14.610Z,-2.40
2019-01-24T21:55:43.830Z,-2.40
2019-01-24T21:58:13.044Z,-2.30
2019-01-24T22:00:42.264Z,-2.40
2019-01-24T22:03:11.438Z,-2.30
2019-01-24T22:05:40.876Z,-2.30
2019-01-24T22:08:10.138Z,-2.30
2019-01-24T22:10:39.457Z,-2.30
2019-01-24T22:13:08.784Z,-2.30
2019-01-24T22:15:38.094Z,-2.30
2019-01-24T22:18:07.848Z,-2.30
2019-01-24T22:20:37.121Z,-2.40
2019-01-24T22:23:06.410Z,-2.40
2019-01-24T22:25:36.359Z,-2.40
2019-01-24T22:28:06.579Z,-2.40
2019-01-24T22:30:43.824Z,-2.40
2019-01-24T22:33:13.166Z,-2.40
2019-01-24T22:35:42.399Z,-2.40
2019-01-24T22:38:11.671Z,-2.40
2019-01-24T22:40:40.884Z,-2.30
2019-01-24T22:43:10.105Z,-2.40
2019-01-24T22:45:39.375Z,-2.40
2019-01-24T22:48:08.703Z,-2.50
2019-01-24T22:50:37.972Z,-2.50
2019-01-24T22:53:07.594Z,-2.60
2019-01-24T22:55:36.792Z,-2.50
2019-01-24T22:58:06.673Z,-2.50
2019-01-24T23:00:58.126Z,-2.50
2019-01-24T23:03:36.919Z,-2.80
2019-01-24T23:06:06.279Z,-2.60
2019-01-24T23:08:35.484Z,-2.60
2019-01-24T23:11:05.012Z,-2.60
2019-01-24T23:13:34.348Z,-2.60
2019-01-24T23:16:03.608Z,-2.60
2019-01-24T23:18:32.816Z,-2.60
2019-01-24T23:21:02.096Z,-2.60
2019-01-24T23:23:31.352Z,-2.60
2019-01-24T23:26:00.566Z,-2.60
2019-01-24T23:28:29.796Z,-2.60
2019-01-24T23:30:59.039Z,-2.60
2019-01-24T23:33:28.337Z,-2.70
2019-01-24T23:35:57.606Z,-2.80
2019-01-24T23:38:26.960Z,-2.70
2019-01-24T23:40:56.312Z,-2.80
2019-01-24T23:43:25.690Z,-2.90
2019-01-24T23:45:55.003Z,-2.80
2019-01-24T23:48:24.259Z,-2.90
2019-01-24T23:50:53.580Z,-3.00
2019-01-24T23:53:22.894Z,-3.00
2019-01-24T23:55:52.211Z,-3.10
2019-01-24T23:58:21.543Z,-3.00
